Saint Lucie West, Florida
Current Conditions -  °F | °C
As of 5:53 PM on Wednesday 26 Nov 2014 (Local Time) from KFPR Reporting Station
Clear Clear  
Wind Chill: 56°   Ceiling: Unl
Heat Index: 56°   Visibility: 10mi
Dew Point: 51°   Wind: 5mph
Humidity: 84%   Direction: 290°WNW
Pressure: 30.16"   Gusts: NA
Location:  27.3209°N, 80.3507°W
Report Text: KFPR 262253Z 29004KT 10SM CLR 13/11 A3016 RMK AO2 SLP213 T01330106
Loading
Personal Weather Stations






























Interactive Weather Map New forecast layout! Learn more

10-Day Weather Forecast

Advertisements
Track Severe Weather on mobile